SBRJSBBH

Guest
Details From SBRJ - Santos-Dumont
To SBBH - Pampulha
Flight Number -
Tags generated
Created
Modified
Stats Distance 190 nm / 352 km
Max Altitude 18,300 ft / 5,578 m
Waypoints 3
Social Downloads 0
Likes 0
Share VATSIM

Download

Looking for another format? Having issues loading an existing format? Contact us
Advertisement - Login to hide

Notes

Basic altitude profile: - Ascent Rate: 1500ft/min - Ascent Speed: 120kts - Cruise Altitude: 10000ft - Cruise Speed: 220kts - Descent Rate: 1000ft/min - Descent Speed: 140kts Options: - Use NATs: yes - Use PACOTS: yes - Use low airways: yes - Use high airways: yes

Route

SBRJ BBC SBBH

ID Type Via Altitude Latitude Longitude Leg Dist Tot Dist Heading (true) Name
O SBRJ APT - 0 ft / 0 m -22.91046˚ -43.16313˚ - 0 nm - Santos-Dumont
BBC NDB - 18,300 ft / 5,578 m -21.26700˚ -43.76417˚ 104 nm 104 nm 341° / 341° BARBACENA NDB
O SBBH APT - 0 ft / 0 m -19.85118˚ -43.95063˚ 85 nm 189 nm 353° / 353° Pampulha

Altitude Profile

Advertisement - Login to hide

Weather


0- 5 10 15 20 25 30 35+ Temperature / ° C

Clouds and Precipitation
Forecast for 2017-12-13 18:00 UTC. Updated an hour ago

Ground ~20,000 ft ~40,000 ft Winds

SBRJ

Details ICAO SBRJ (SDU)
Name Santos-Dumont
Region Brazil
Timezone Unknown (UTC+0.0)
Stats Elevation 11 ft / 3 m (AMSL)
Location -22.910460° -43.163133°
Runways 2
Magnetic Variation 22.782° W

METAR

SBRJ 131800Z 16012KT 9999 SCT035 SCT070 27/19 Q1017

Decode

TAF

TAF SBRJ 131400Z 1318/1406 17015KT 9999 SCT025 TX28/1318Z TN22/1405Z BECMG 1401/1403 05007KT CAVOK RMK PGX

Decode

Departure Runways

ID Width Length Bearing (true) Bearing (mag) Surface Threshold Offset Overrun Length
02L 98 ft / 30 m 4,154 ft / 1,266 m 358.02° 20.80° Asphalt 0 ft / 0 m 80 ft / 24 m
02R 138 ft / 42 m 4,361 ft / 1,329 m 358.01° 20.79° Asphalt 0 ft / 0 m 80 ft / 24 m
20L 138 ft / 42 m 4,361 ft / 1,329 m 178.01° 200.79° Asphalt 0 ft / 0 m 80 ft / 24 m
20R 98 ft / 30 m 4,154 ft / 1,266 m 178.02° 200.80° Asphalt 0 ft / 0 m 95 ft / 29 m

SBBH

Details ICAO SBBH (PLU)
Name Pampulha
Region Brazil
Timezone America/Sao_Paulo (UTC-2.0)
Stats Elevation 2,589 ft / 789 m (AMSL)
Location -19.851179° -43.950626°
Runways 1
Magnetic Variation 22.798° W

METAR

SBBH 131800Z 03007KT 9999 BKN045 BKN100 24/16 Q1019

Decode

TAF

Not found

Destination Runways

ID Width Length Bearing (true) Bearing (mag) Surface Threshold Offset Overrun Length
13 148 ft / 45 m 8,214 ft / 2,504 m 110.63° 133.43° Asphalt 0 ft / 0 m 200 ft / 61 m
31 148 ft / 45 m 8,214 ft / 2,504 m 290.62° 313.42° Asphalt 0 ft / 0 m 200 ft / 61 m

Popular Alternatives